Time,TemperatureF,DewpointF,PressureIn,WindDirection,WindDirectionDegrees,WindSpeedMPH,WindSpeedGustMPH,Humidity,HourlyPrecipIn,Conditions,Clouds,dailyrainin,SoftwareType,DateUTC
2013-08-30 00:00:00,67.9,65.2,18.25,East,86,0.0,0.0,91,0.00,,SKC,0.00,VWS V14.01,2013-08-30 04:00:00,
2013-08-30 00:01:00,67.9,65.2,18.25,East,86,2.0,2.0,91,0.00,,SKC,0.00,VWS V14.01,2013-08-30 04:01:00,
2013-08-30 00:06:00,67.9,65.2,18.25,East,86,0.0,0.0,91,0.00,,SKC,0.00,VWS V14.01,2013-08-30 04:06:00,
2013-08-30 00:11:00,67.9,65.2,18.25,East,86,0.0,0.0,91,0.00,,SKC,0.00,VWS V14.01,2013-08-30 04:11:00,
2013-08-30 00:16:00,67.8,65.4,18.25,East,86,0.0,0.0,92,0.00,,SKC,0.00,VWS V14.01,2013-08-30 04:16:00,
2013-08-30 00:21:00,67.6,64.9,18.25,East,86,0.0,0.0,91,0.00,,SKC,0.00,VWS V14.01,2013-08-30 04:21:00,
2013-08-30 00:26:00,67.4,64.7,18.25,East,86,0.0,0.0,91,0.00,,SKC,0.00,VWS V14.01,2013-08-30 04:26:00,
2013-08-30 00:31:00,67.3,64.9,18.25,East,86,0.0,0.0,92,0.00,,SKC,0.00,VWS V14.01,2013-08-30 04:31:00,
2013-08-30 00:36:00,67.2,64.8,18.25,East,86,0.0,0.0,92,0.00,,SKC,0.00,VWS V14.01,2013-08-30 04:36:00,
2013-08-30 00:41:00,67.1,64.7,18.25,East,86,0.0,0.0,92,0.00,,SKC,0.00,VWS V14.01,2013-08-30 04:41:00,
2013-08-30 00:46:00,66.9,64.5,18.25,East,86,0.0,0.0,92,0.00,,SKC,0.00,VWS V14.01,2013-08-30 04:46:00,
2013-08-30 00:51:00,66.8,64.7,18.25,East,86,0.0,0.0,93,0.00,,SKC,0.00,VWS V14.01,2013-08-30 04:51:00,
2013-08-30 00:56:00,66.6,64.5,18.25,East,86,0.0,0.0,93,0.00,,SKC,0.00,VWS V14.01,2013-08-30 04:56:00,
2013-08-30 01:01:00,66.5,64.4,18.25,East,86,0.0,0.0,93,0.00,,SKC,0.00,VWS V14.01,2013-08-30 05:01:00,
2013-08-30 01:06:00,66.5,64.4,18.25,East,86,0.0,0.0,93,0.00,,SKC,0.00,VWS V14.01,2013-08-30 05:06:00,
2013-08-30 01:11:00,66.4,64.3,18.25,East,86,0.0,0.0,93,0.00,,SKC,0.00,VWS V14.01,2013-08-30 05:11:00,
2013-08-30 01:16:00,66.3,64.2,18.25,East,86,0.0,0.0,93,0.00,,SKC,0.00,VWS V14.01,2013-08-30 05:16:00,
2013-08-30 01:21:00,66.2,64.1,18.25,East,86,0.0,0.0,93,0.00,,SKC,0.00,VWS V14.01,2013-08-30 05:21:00,
2013-08-30 01:25:00,66.1,64.0,18.25,East,86,0.0,0.0,93,0.00,,SKC,0.00,VWS V14.01,2013-08-30 05:25:00,
2013-08-30 01:30:00,66.0,63.9,18.25,East,86,0.0,0.0,93,0.00,,SKC,0.00,VWS V14.01,2013-08-30 05:30:00,
2013-08-30 01:35:00,66.0,64.2,18.25,East,86,0.0,0.0,94,0.00,,SKC,0.00,VWS V14.01,2013-08-30 05:35:00,
2013-08-30 01:40:00,66.0,64.2,18.25,East,86,0.0,0.0,94,0.00,,SKC,0.00,VWS V14.01,2013-08-30 05:40:00,
2013-08-30 01:45:00,65.9,64.1,18.25,East,86,0.0,0.0,94,0.00,,SKC,0.00,VWS V14.01,2013-08-30 05:45:00,
2013-08-30 01:50:00,65.9,64.1,18.25,East,86,0.0,0.0,94,0.00,,SKC,0.00,VWS V14.01,2013-08-30 05:50:00,
2013-08-30 01:55:00,65.8,64.0,19.07,East,86,0.0,0.0,94,0.00,,SKC,0.00,VWS V14.01,2013-08-30 05:55:00,
2013-08-30 02:00:00,65.8,64.0,19.07,East,86,0.0,0.0,94,0.00,,SKC,0.00,VWS V14.01,2013-08-30 06:00:00,
2013-08-30 02:05:00,65.7,63.9,19.07,East,86,0.0,0.0,94,0.00,,SKC,0.00,VWS V14.01,2013-08-30 06:05:00,
2013-08-30 02:10:00,65.6,63.8,19.07,East,86,0.0,0.0,94,0.00,,SKC,0.00,VWS V14.01,2013-08-30 06:10:00,
2013-08-30 02:15:00,65.6,63.8,19.07,East,86,0.0,0.0,94,0.00,,SKC,0.00,VWS V14.01,2013-08-30 06:15:00,
2013-08-30 02:20:00,65.6,63.8,19.07,East,86,0.0,0.0,94,0.00,,SKC,0.00,VWS V14.01,2013-08-30 06:20:00,
2013-08-30 02:25:00,65.5,63.7,19.07,East,86,0.0,0.0,94,0.00,,SKC,0.00,VWS V14.01,2013-08-30 06:25:00,
2013-08-30 02:30:00,65.5,63.7,19.07,East,86,0.0,0.0,94,0.00,,SKC,0.00,VWS V14.01,2013-08-30 06:30:00,
2013-08-30 02:35:00,65.5,63.7,19.07,East,86,0.0,0.0,94,0.00,,SKC,0.00,VWS V14.01,2013-08-30 06:35:00,
2013-08-30 02:40:00,65.6,63.8,19.07,East,86,0.0,0.0,94,0.00,,SKC,0.00,VWS V14.01,2013-08-30 06:40:00,
2013-08-30 02:45:00,65.7,63.9,19.07,East,86,0.0,0.0,94,0.00,,SKC,0.00,VWS V14.01,2013-08-30 06:45:00,
2013-08-30 02:50:00,65.7,63.9,19.07,East,86,0.0,0.0,94,0.00,,SKC,0.00,VWS V14.01,2013-08-30 06:50:00,
2013-08-30 02:55:00,65.7,63.9,19.07,East,86,0.0,0.0,94,0.00,,SKC,0.00,VWS V14.01,2013-08-30 06:55:00,
2013-08-30 03:00:00,65.7,63.9,19.07,East,86,0.0,0.0,94,0.00,,SKC,0.00,VWS V14.01,2013-08-30 07:00:00,
2013-08-30 03:05:00,65.8,64.0,19.07,East,86,0.0,0.0,94,0.00,,SKC,0.00,VWS V14.01,2013-08-30 07:05:00,
2013-08-30 03:10:00,65.8,64.3,19.07,East,86,0.0,0.0,95,0.00,,SKC,0.00,VWS V14.01,2013-08-30 07:10:00,
2013-08-30 03:15:00,65.9,64.4,19.07,East,86,0.0,0.0,95,0.00,,SKC,0.00,VWS V14.01,2013-08-30 07:15:00,
2013-08-30 03:20:00,65.9,64.4,19.07,East,86,0.0,0.0,95,0.00,,SKC,0.00,VWS V14.01,2013-08-30 07:20:00,
2013-08-30 03:25:00,65.9,64.4,19.07,East,86,0.0,0.0,95,0.00,,SKC,0.00,VWS V14.01,2013-08-30 07:25:00,
2013-08-30 03:30:00,66.0,64.5,19.07,East,86,0.0,0.0,95,0.00,,SKC,0.00,VWS V14.01,2013-08-30 07:30:00,
2013-08-30 03:35:00,66.0,64.5,19.07,East,86,0.0,0.0,95,0.00,,SKC,0.00,VWS V14.01,2013-08-30 07:35:00,
2013-08-30 03:40:00,66.0,64.5,19.07,East,86,0.0,0.0,95,0.00,,SKC,0.00,VWS V14.01,2013-08-30 07:40:00,
2013-08-30 03:45:00,65.9,64.1,19.07,East,86,0.0,0.0,94,0.00,,SKC,0.00,VWS V14.01,2013-08-30 07:45:00,
2013-08-30 03:50:00,65.8,64.0,19.07,East,86,0.0,0.0,94,0.00,,SKC,0.00,VWS V14.01,2013-08-30 07:50:00,
2013-08-30 03:55:00,65.7,63.9,19.07,East,86,0.0,0.0,94,0.00,,SKC,0.00,VWS V14.01,2013-08-30 07:55:00,
2013-08-30 04:00:00,65.6,63.8,19.07,East,86,0.0,0.0,94,0.00,,SKC,0.00,VWS V14.01,2013-08-30 08:00:00,
2013-08-30 04:05:00,65.6,63.8,19.07,East,86,0.0,0.0,94,0.00,,SKC,0.00,VWS V14.01,2013-08-30 08:05:00,
2013-08-30 04:10:00,65.5,63.7,19.07,East,86,0.0,0.0,94,0.00,,SKC,0.00,VWS V14.01,2013-08-30 08:10:00,
2013-08-30 04:15:00,65.6,64.1,19.07,East,86,0.0,0.0,95,0.00,,SKC,0.00,VWS V14.01,2013-08-30 08:15:00,
2013-08-30 04:20:00,65.6,64.1,19.07,East,86,0.0,0.0,95,0.00,,SKC,0.00,VWS V14.01,2013-08-30 08:20:00,
2013-08-30 04:25:00,65.6,64.1,19.07,East,86,0.0,0.0,95,0.00,,SKC,0.00,VWS V14.01,2013-08-30 08:25:00,
2013-08-30 04:30:00,65.5,64.0,19.07,East,86,0.0,0.0,95,0.00,,SKC,0.00,VWS V14.01,2013-08-30 08:30:00,
2013-08-30 04:35:00,65.6,64.1,19.07,East,86,0.0,0.0,95,0.00,,SKC,0.00,VWS V14.01,2013-08-30 08:35:00,
2013-08-30 04:40:00,65.6,64.1,19.07,East,86,0.0,0.0,95,0.00,,SKC,0.00,VWS V14.01,2013-08-30 08:40:00,
2013-08-30 04:45:00,65.7,64.2,19.07,East,86,0.0,0.0,95,0.00,,SKC,0.00,VWS V14.01,2013-08-30 08:45:00,
2013-08-30 04:50:00,65.7,64.2,19.07,East,86,0.0,0.0,95,0.00,,SKC,0.00,VWS V14.01,2013-08-30 08:50:00,
2013-08-30 04:55:00,65.8,64.3,19.07,East,86,0.0,0.0,95,0.00,,SKC,0.00,VWS V14.01,2013-08-30 08:55:00,
2013-08-30 05:00:00,65.8,64.3,19.07,East,86,0.0,0.0,95,0.00,,SKC,0.00,VWS V14.01,2013-08-30 09:00:00,
2013-08-30 05:05:00,65.9,64.4,19.07,East,86,0.0,0.0,95,0.00,,SKC,0.00,VWS V14.01,2013-08-30 09:05:00,
2013-08-30 05:10:00,65.9,64.4,19.07,East,86,0.0,0.0,95,0.00,,SKC,0.00,VWS V14.01,2013-08-30 09:10:00,
2013-08-30 05:15:00,65.9,64.4,19.07,East,86,0.0,0.0,95,0.00,,SKC,0.00,VWS V14.01,2013-08-30 09:15:00,
2013-08-30 05:20:00,65.8,64.3,19.07,East,86,0.0,0.0,95,0.00,,SKC,0.00,VWS V14.01,2013-08-30 09:20:00,
2013-08-30 05:25:00,65.8,64.3,19.07,East,86,0.0,0.0,95,0.00,,SKC,0.00,VWS V14.01,2013-08-30 09:25:00,
2013-08-30 05:30:00,65.8,64.3,19.07,East,86,0.0,0.0,95,0.00,,SKC,0.00,VWS V14.01,2013-08-30 09:30:00,
2013-08-30 05:35:00,65.9,64.4,19.07,East,86,0.0,0.0,95,0.00,,SKC,0.00,VWS V14.01,2013-08-30 09:35:00,
2013-08-30 05:40:00,65.9,64.4,19.07,East,86,0.0,0.0,95,0.00,,SKC,0.00,VWS V14.01,2013-08-30 09:40:00,
2013-08-30 05:45:00,65.9,64.4,19.07,East,86,0.0,0.0,95,0.00,,SKC,0.00,VWS V14.01,2013-08-30 09:45:00,
2013-08-30 05:50:00,65.8,64.3,19.07,East,86,0.0,0.0,95,0.00,,SKC,0.00,VWS V14.01,2013-08-30 09:50:00,
2013-08-30 05:55:00,65.8,64.3,19.07,East,86,0.0,0.0,95,0.00,,SKC,0.00,VWS V14.01,2013-08-30 09:55:00,
2013-08-30 06:00:00,65.7,64.2,19.07,East,86,0.0,0.0,95,0.00,,SKC,0.00,VWS V14.01,2013-08-30 10:00:00,
2013-08-30 06:05:00,65.8,64.3,19.15,East,86,0.0,0.0,95,0.00,,SKC,0.00,VWS V14.01,2013-08-30 10:05:00,
2013-08-30 06:10:00,65.8,64.3,19.15,East,86,0.0,0.0,95,0.00,,SKC,0.00,VWS V14.01,2013-08-30 10:10:00,
2013-08-30 06:15:00,65.9,64.4,19.15,East,86,0.0,0.0,95,0.00,,SKC,0.00,VWS V14.01,2013-08-30 10:15:00,
2013-08-30 06:20:00,65.9,64.4,19.15,East,86,0.0,0.0,95,0.00,,SKC,0.00,VWS V14.01,2013-08-30 10:20:00,
2013-08-30 06:25:00,66.0,64.5,19.15,East,86,0.0,0.0,95,0.00,,SKC,0.00,VWS V14.01,2013-08-30 10:25:00,
2013-08-30 06:30:00,66.0,64.5,19.15,East,86,0.0,0.0,95,0.00,,SKC,0.00,VWS V14.01,2013-08-30 10:30:00,
2013-08-30 06:35:00,66.0,64.5,19.15,East,86,0.0,0.0,95,0.00,,SKC,0.00,VWS V14.01,2013-08-30 10:35:00,
2013-08-30 06:40:00,66.1,64.6,19.15,East,86,0.0,0.0,95,0.00,,SKC,0.00,VWS V14.01,2013-08-30 10:40:00,
2013-08-30 06:45:00,66.1,64.6,19.15,East,86,0.0,0.0,95,0.00,,SKC,0.00,VWS V14.01,2013-08-30 10:45:00,
2013-08-30 06:50:00,66.1,64.6,19.15,East,86,0.0,0.0,95,0.00,,SKC,0.00,VWS V14.01,2013-08-30 10:50:00,
2013-08-30 06:55:00,66.1,64.6,19.15,East,86,0.0,0.0,95,0.00,,SKC,0.00,VWS V14.01,2013-08-30 10:55:00,
2013-08-30 07:00:00,66.1,64.6,19.15,East,86,0.0,0.0,95,0.00,,SKC,0.00,VWS V14.01,2013-08-30 11:00:00,
2013-08-30 07:05:00,66.1,64.3,19.15,East,86,0.0,0.0,94,0.00,,SKC,0.00,VWS V14.01,2013-08-30 11:05:00,
2013-08-30 07:10:00,66.1,64.3,19.15,East,86,0.0,0.0,94,0.00,,SKC,0.00,VWS V14.01,2013-08-30 11:10:00,
2013-08-30 07:15:00,66.1,64.6,19.15,East,86,0.0,0.0,95,0.00,,SKC,0.00,VWS V14.01,2013-08-30 11:15:00,
2013-08-30 07:20:00,66.1,64.3,19.15,East,86,0.0,0.0,94,0.00,,SKC,0.00,VWS V14.01,2013-08-30 11:20:00,
2013-08-30 07:25:00,66.1,64.6,19.15,East,86,0.0,0.0,95,0.00,,SKC,0.00,VWS V14.01,2013-08-30 11:25:00,
2013-08-30 07:30:00,66.2,64.7,19.15,East,86,0.0,0.0,95,0.00,,SKC,0.00,VWS V14.01,2013-08-30 11:30:00,
2013-08-30 07:35:00,66.3,64.8,19.15,East,86,0.0,0.0,95,0.00,,SKC,0.00,VWS V14.01,2013-08-30 11:35:00,
2013-08-30 07:40:00,66.3,64.8,19.15,East,86,0.0,0.0,95,0.00,,SKC,0.00,VWS V14.01,2013-08-30 11:40:00,
2013-08-30 07:45:00,66.4,64.6,19.15,East,86,0.0,0.0,94,0.00,,SKC,0.00,VWS V14.01,2013-08-30 11:45:00,
2013-08-30 07:50:00,66.5,64.7,19.15,East,86,0.0,0.0,94,0.00,,SKC,0.00,VWS V14.01,2013-08-30 11:50:00,
2013-08-30 07:55:00,66.6,64.8,19.15,East,86,0.0,0.0,94,0.00,,SKC,0.00,VWS V14.01,2013-08-30 11:55:00,
2013-08-30 08:00:00,66.7,64.9,19.15,East,86,0.0,0.0,94,0.00,,SKC,0.00,VWS V14.01,2013-08-30 12:00:00,
2013-08-30 08:04:00,66.8,65.0,19.15,East,86,0.0,0.0,94,0.00,,SKC,0.00,VWS V14.01,2013-08-30 12:04:00,
2013-08-30 08:09:00,66.9,65.1,19.15,East,86,0.0,0.0,94,0.00,,SKC,0.00,VWS V14.01,2013-08-30 12:09:00,
2013-08-30 08:14:00,67.1,65.3,19.15,East,86,0.0,0.0,94,0.00,,SKC,0.00,VWS V14.01,2013-08-30 12:14:00,
2013-08-30 08:19:00,67.3,65.5,19.15,East,86,1.0,1.0,94,0.00,,SKC,0.00,VWS V14.01,2013-08-30 12:19:00,
2013-08-30 08:24:00,67.4,65.6,19.15,East,86,0.0,0.0,94,0.00,,SKC,0.00,VWS V14.01,2013-08-30 12:24:00,
2013-08-30 08:29:00,67.6,65.5,19.15,East,86,0.0,0.0,93,0.00,,SKC,0.00,VWS V14.01,2013-08-30 12:29:00,
2013-08-30 08:34:00,67.8,65.7,19.15,East,86,0.0,0.0,93,0.00,,SKC,0.00,VWS V14.01,2013-08-30 12:34:00,
2013-08-30 08:39:00,68.0,65.9,19.15,East,86,0.0,0.0,93,0.00,,SKC,0.00,VWS V14.01,2013-08-30 12:39:00,
2013-08-30 08:44:00,68.2,65.8,19.15,East,86,0.0,0.0,92,0.00,,SKC,0.00,VWS V14.01,2013-08-30 12:44:00,
2013-08-30 08:49:00,68.3,65.9,19.15,East,86,0.0,0.0,92,0.00,,SKC,0.00,VWS V14.01,2013-08-30 12:49:00,
2013-08-30 08:54:00,68.6,65.9,19.15,East,86,0.0,0.0,91,0.00,,SKC,0.00,VWS V14.01,2013-08-30 12:54:00,
2013-08-30 08:59:00,69.0,66.3,19.15,East,86,0.0,0.0,91,0.00,,SKC,0.00,VWS V14.01,2013-08-30 12:59:00,
2013-08-30 09:04:00,69.7,66.3,19.15,East,86,0.0,0.0,89,0.00,,SKC,0.00,VWS V14.01,2013-08-30 13:04:00,
2013-08-30 09:09:00,70.0,66.3,19.15,East,86,0.0,0.0,88,0.00,,SKC,0.00,VWS V14.01,2013-08-30 13:09:00,
2013-08-30 09:14:00,70.6,66.6,19.15,East,86,0.0,0.0,87,0.00,,SKC,0.00,VWS V14.01,2013-08-30 13:14:00,
2013-08-30 09:19:00,71.0,66.6,19.15,East,86,0.0,1.0,86,0.00,,SKC,0.00,VWS V14.01,2013-08-30 13:19:00,
2013-08-30 09:24:00,71.3,66.6,19.15,East,86,1.0,1.0,85,0.00,,SKC,0.00,VWS V14.01,2013-08-30 13:24:00,
2013-08-30 09:29:00,71.5,66.8,19.15,East,86,1.0,2.0,85,0.00,,SKC,0.00,VWS V14.01,2013-08-30 13:29:00,
2013-08-30 09:34:00,71.3,66.6,19.15,East,86,0.0,3.0,85,0.00,,SKC,0.00,VWS V14.01,2013-08-30 13:34:00,
2013-08-30 09:39:00,71.4,66.7,19.15,East,86,0.0,0.0,85,0.00,,SKC,0.00,VWS V14.01,2013-08-30 13:39:00,
2013-08-30 09:44:00,71.8,66.4,19.15,South,191,1.0,3.0,83,0.00,,SKC,0.00,VWS V14.01,2013-08-30 13:44:00,
2013-08-30 09:49:00,72.3,67.5,19.15,South,188,0.0,0.0,85,0.00,,SKC,0.00,VWS V14.01,2013-08-30 13:49:00,
2013-08-30 09:54:00,72.9,67.1,19.15,South,173,2.0,3.0,82,0.00,,SKC,0.00,VWS V14.01,2013-08-30 13:54:00,
2013-08-30 09:59:00,72.9,67.1,19.15,South,172,1.0,2.0,82,0.00,,SKC,0.00,VWS V14.01,2013-08-30 13:59:00,
2013-08-30 10:04:00,72.9,66.7,19.15,South,172,1.0,2.0,81,0.00,,SKC,0.00,VWS V14.01,2013-08-30 14:04:00,
2013-08-30 10:09:00,73.2,67.4,19.15,South,172,1.0,1.0,82,0.00,,SKC,0.00,VWS V14.01,2013-08-30 14:09:00,
2013-08-30 10:14:00,73.7,67.5,19.15,South,172,2.0,2.0,81,0.00,,SKC,0.00,VWS V14.01,2013-08-30 14:14:00,
2013-08-30 10:19:00,74.0,67.8,19.15,South,172,0.0,0.0,81,0.00,,SKC,0.00,VWS V14.01,2013-08-30 14:19:00,
2013-08-30 10:24:00,74.2,66.9,19.15,East,98,1.0,2.0,78,0.00,,SKC,0.00,VWS V14.01,2013-08-30 14:24:00,
2013-08-30 10:29:00,74.1,67.5,19.15,SSE,161,0.0,1.0,80,0.00,,SKC,0.00,VWS V14.01,2013-08-30 14:29:00,
2013-08-30 10:34:00,74.4,67.1,19.15,NE,49,1.0,1.0,78,0.00,,SKC,0.00,VWS V14.01,2013-08-30 14:34:00,
2013-08-30 10:39:00,74.7,67.4,19.15,NE,48,3.0,4.0,78,0.00,,SKC,0.00,VWS V14.01,2013-08-30 14:39:00,
2013-08-30 10:44:00,75.0,67.3,19.15,NE,46,0.0,2.0,77,0.00,,SKC,0.00,VWS V14.01,2013-08-30 14:44:00,
2013-08-30 10:49:00,75.2,67.1,19.15,NE,46,0.0,2.0,76,0.00,,SKC,0.00,VWS V14.01,2013-08-30 14:49:00,
2013-08-30 10:54:00,75.5,67.8,19.15,NE,45,1.0,1.0,77,0.00,,SKC,0.00,VWS V14.01,2013-08-30 14:54:00,
2013-08-30 10:59:00,76.3,68.2,19.15,NE,45,2.0,3.0,76,0.00,,SKC,0.00,VWS V14.01,2013-08-30 14:59:00,
2013-08-30 11:04:00,76.5,68.0,19.15,East,95,1.0,3.0,75,0.00,,SKC,0.00,VWS V14.01,2013-08-30 15:04:00,
2013-08-30 11:09:00,76.8,68.3,19.15,East,96,2.0,2.0,75,0.00,,SKC,0.00,VWS V14.01,2013-08-30 15:09:00,
2013-08-30 11:14:00,77.0,67.7,19.15,ESE,108,0.0,2.0,73,0.00,,SKC,0.00,VWS V14.01,2013-08-30 15:14:00,
2013-08-30 11:19:00,77.5,69.0,19.15,ESE,108,0.0,3.0,75,0.00,,SKC,0.00,VWS V14.01,2013-08-30 15:19:00,
2013-08-30 11:24:00,78.5,69.1,19.15,NNE,28,0.0,0.0,73,0.00,,SKC,0.00,VWS V14.01,2013-08-30 15:24:00,
2013-08-30 11:29:00,79.1,68.9,19.15,NNE,30,0.0,1.0,71,0.00,,SKC,0.00,VWS V14.01,2013-08-30 15:29:00,
2013-08-30 11:34:00,79.1,68.5,19.15,West,281,2.0,2.0,70,0.00,,SKC,0.00,VWS V14.01,2013-08-30 15:34:00,
2013-08-30 11:39:00,79.0,68.8,19.15,ESE,114,2.0,5.0,71,0.00,,SKC,0.00,VWS V14.01,2013-08-30 15:39:00,
2013-08-30 11:44:00,78.7,68.5,19.15,ESE,111,0.0,0.0,71,0.00,,SKC,0.00,VWS V14.01,2013-08-30 15:44:00,
2013-08-30 11:49:00,79.1,68.5,19.15,ESE,123,0.0,1.0,70,0.00,,SKC,0.00,VWS V14.01,2013-08-30 15:49:00,
2013-08-30 11:54:00,79.4,68.8,19.15,ESE,123,0.0,0.0,70,0.00,,SKC,0.00,VWS V14.01,2013-08-30 15:54:00,
2013-08-30 11:59:00,80.3,69.6,19.15,NE,51,2.0,3.0,70,0.00,,SKC,0.00,VWS V14.01,2013-08-30 15:59:00,
2013-08-30 12:04:00,80.0,68.5,19.15,NE,55,4.0,4.0,68,0.00,,SKC,0.00,VWS V14.01,2013-08-30 16:04:00,
2013-08-30 12:09:00,79.6,67.7,19.15,NNE,30,0.0,2.0,67,0.00,,SKC,0.00,VWS V14.01,2013-08-30 16:09:00,
2013-08-30 12:14:00,79.7,66.5,19.15,NNW,327,1.0,3.0,64,0.00,,SKC,0.00,VWS V14.01,2013-08-30 16:14:00,
2013-08-30 12:19:00,80.3,67.0,19.15,NNW,338,1.0,5.0,64,0.00,,SKC,0.00,VWS V14.01,2013-08-30 16:19:00,
2013-08-30 12:24:00,80.6,68.6,19.15,NNW,342,4.0,4.0,67,0.00,,SKC,0.00,VWS V14.01,2013-08-30 16:24:00,
2013-08-30 12:29:00,80.9,67.1,19.15,SW,222,4.0,4.0,63,0.00,,SKC,0.00,VWS V14.01,2013-08-30 16:29:00,
2013-08-30 12:34:00,81.0,67.7,19.15,NNE,33,1.0,1.0,64,0.00,,SKC,0.00,VWS V14.01,2013-08-30 16:34:00,
2013-08-30 12:39:00,81.3,67.1,19.15,NNE,21,5.0,8.0,62,0.00,,SKC,0.00,VWS V14.01,2013-08-30 16:39:00,
2013-08-30 12:44:00,81.3,67.1,19.15,NE,45,1.0,2.0,62,0.00,,SKC,0.00,VWS V14.01,2013-08-30 16:44:00,
2013-08-30 12:49:00,81.5,66.8,19.15,South,169,0.0,2.0,61,0.00,,SKC,0.00,VWS V14.01,2013-08-30 16:49:00,
2013-08-30 12:54:00,82.0,67.2,19.15,NW,324,0.0,3.0,61,0.00,,SKC,0.00,VWS V14.01,2013-08-30 16:54:00,
2013-08-30 12:59:00,82.5,67.7,19.15,West,277,2.0,2.0,61,0.00,,SKC,0.00,VWS V14.01,2013-08-30 16:59:00,
2013-08-30 13:04:00,82.9,67.6,19.15,NNW,342,0.0,3.0,60,0.00,,SKC,0.00,VWS V14.01,2013-08-30 17:04:00,
2013-08-30 13:09:00,83.4,68.6,19.15,NE,38,4.0,8.0,61,0.00,,SKC,0.00,VWS V14.01,2013-08-30 17:09:00,
2013-08-30 13:14:00,83.2,67.4,19.15,NNE,21,3.0,5.0,59,0.00,,SKC,0.00,VWS V14.01,2013-08-30 17:14:00,
2013-08-30 13:19:00,82.7,66.9,19.15,South,184,1.0,4.0,59,0.00,,SKC,0.00,VWS V14.01,2013-08-30 17:19:00,
2013-08-30 13:24:00,83.3,67.5,19.15,WSW,253,2.0,2.0,59,0.00,,SKC,0.00,VWS V14.01,2013-08-30 17:24:00,
2013-08-30 13:29:00,83.6,67.3,19.15,North,9,2.0,7.0,58,0.00,,SKC,0.00,VWS V14.01,2013-08-30 17:29:00,
2013-08-30 13:34:00,83.0,66.2,19.15,WSW,246,2.0,5.0,57,0.00,,SKC,0.00,VWS V14.01,2013-08-30 17:34:00,
2013-08-30 13:39:00,83.1,66.8,19.15,South,189,4.0,6.0,58,0.00,,SKC,0.00,VWS V14.01,2013-08-30 17:39:00,
2013-08-30 13:44:00,82.8,67.5,19.15,SSW,209,4.0,4.0,60,0.00,,SKC,0.00,VWS V14.01,2013-08-30 17:44:00,
2013-08-30 13:49:00,82.7,66.9,19.15,NW,318,4.0,5.0,59,0.00,,SKC,0.00,VWS V14.01,2013-08-30 17:49:00,
2013-08-30 13:54:00,82.8,66.5,19.15,East,92,0.0,1.0,58,0.00,,SKC,0.00,VWS V14.01,2013-08-30 17:54:00,
2013-08-30 13:59:00,83.2,66.4,19.15,NE,49,3.0,5.0,57,0.00,,SKC,0.00,VWS V14.01,2013-08-30 17:59:00,
2013-08-30 14:04:00,83.8,67.0,19.15,NNE,20,1.0,3.0,57,0.00,,SKC,0.00,VWS V14.01,2013-08-30 18:04:00,
2013-08-30 14:09:00,84.3,66.9,19.15,NNE,26,4.0,5.0,56,0.00,,SKC,0.00,VWS V14.01,2013-08-30 18:09:00,
2013-08-30 14:14:00,84.4,65.9,19.15,ENE,59,1.0,1.0,54,0.00,,SKC,0.00,VWS V14.01,2013-08-30 18:14:00,
2013-08-30 14:19:00,84.1,66.2,19.15,SSW,210,2.0,3.0,55,0.00,,SKC,0.00,VWS V14.01,2013-08-30 18:19:00,
2013-08-30 14:24:00,83.7,65.8,19.15,WSW,257,1.0,4.0,55,0.00,,SKC,0.00,VWS V14.01,2013-08-30 18:24:00,
2013-08-30 14:28:00,83.7,66.3,19.15,NE,37,0.0,1.0,56,0.00,,SKC,0.00,VWS V14.01,2013-08-30 18:28:00,
2013-08-30 14:33:00,83.9,66.5,19.15,SSW,205,4.0,7.0,56,0.00,,SKC,0.00,VWS V14.01,2013-08-30 18:33:00,
2013-08-30 14:38:00,83.7,64.8,19.15,South,189,3.0,3.0,53,0.00,,SKC,0.00,VWS V14.01,2013-08-30 18:38:00,
2013-08-30 14:43:00,83.8,66.4,19.15,SSE,149,3.0,3.0,56,0.00,,SKC,0.00,VWS V14.01,2013-08-30 18:43:00,
2013-08-30 14:48:00,84.0,66.1,19.15,North,355,6.0,6.0,55,0.00,,SKC,0.00,VWS V14.01,2013-08-30 18:48:00,
2013-08-30 14:53:00,84.0,65.1,19.15,SSW,201,9.0,9.0,53,0.00,,SKC,0.00,VWS V14.01,2013-08-30 18:53:00,
2013-08-30 14:58:00,83.8,65.4,19.15,South,178,3.0,4.0,54,0.00,,SKC,0.00,VWS V14.01,2013-08-30 18:58:00,
2013-08-30 15:03:00,83.6,66.3,19.15,SSE,165,1.0,3.0,56,0.00,,SKC,0.00,VWS V14.01,2013-08-30 19:03:00,
2013-08-30 15:08:00,84.1,65.7,19.15,North,360,5.0,5.0,54,0.00,,SKC,0.00,VWS V14.01,2013-08-30 19:08:00,
2013-08-30 15:13:00,84.4,65.4,19.15,SSW,195,3.0,6.0,53,0.00,,SKC,0.00,VWS V14.01,2013-08-30 19:13:00,
2013-08-30 15:18:00,84.4,65.4,19.15,North,360,1.0,1.0,53,0.00,,SKC,0.00,VWS V14.01,2013-08-30 19:18:00,
2013-08-30 15:23:00,84.8,65.8,19.15,SW,218,1.0,3.0,53,0.00,,SKC,0.00,VWS V14.01,2013-08-30 19:23:00,
2013-08-30 15:28:00,85.0,66.5,19.15,NNE,17,0.0,2.0,54,0.00,,SKC,0.00,VWS V14.01,2013-08-30 19:28:00,
2013-08-30 15:33:00,85.5,66.4,19.15,NNW,342,5.0,5.0,53,0.00,,SKC,0.00,VWS V14.01,2013-08-30 19:33:00,
2013-08-30 15:38:00,85.4,69.4,19.15,NNE,30,2.0,2.0,59,0.00,,SKC,0.00,VWS V14.01,2013-08-30 19:38:00,
2013-08-30 15:43:00,85.2,70.7,19.15,NNE,13,0.0,1.0,62,0.00,,SKC,0.00,VWS V14.01,2013-08-30 19:43:00,
2013-08-30 15:48:00,85.2,70.7,19.15,NNE,17,1.0,1.0,62,0.00,,SKC,0.00,VWS V14.01,2013-08-30 19:48:00,
2013-08-30 15:53:00,85.0,70.1,19.15,NNE,29,0.0,0.0,61,0.00,,SKC,0.00,VWS V14.01,2013-08-30 19:53:00,
2013-08-30 15:58:00,83.7,70.2,19.15,SE,146,1.0,2.0,64,0.00,,SKC,0.00,VWS V14.01,2013-08-30 19:58:00,
2013-08-30 16:03:00,83.0,70.0,19.15,SE,146,1.0,2.0,65,0.00,,SKC,0.00,VWS V14.01,2013-08-30 20:03:00,
2013-08-30 16:08:00,82.8,70.7,19.15,SSE,147,0.0,1.0,67,0.00,,SKC,0.00,VWS V14.01,2013-08-30 20:08:00,
2013-08-30 16:13:00,82.2,69.7,19.15,NNE,19,1.0,4.0,66,0.00,,SKC,0.00,VWS V14.01,2013-08-30 20:13:00,
2013-08-30 16:18:00,81.6,70.0,19.15,NE,38,2.0,2.0,68,0.00,,SKC,0.00,VWS V14.01,2013-08-30 20:18:00,
2013-08-30 16:23:00,81.6,70.0,19.15,NE,38,0.0,1.0,68,0.00,,SKC,0.00,VWS V14.01,2013-08-30 20:23:00,
2013-08-30 16:28:00,82.4,70.8,19.15,NE,55,0.0,4.0,68,0.00,,SKC,0.00,VWS V14.01,2013-08-30 20:28:00,
2013-08-30 16:33:00,82.8,71.6,19.15,NE,56,2.0,2.0,69,0.00,,SKC,0.00,VWS V14.01,2013-08-30 20:33:00,
2013-08-30 16:38:00,82.6,70.5,19.15,ENE,60,1.0,2.0,67,0.00,,SKC,0.00,VWS V14.01,2013-08-30 20:38:00,
2013-08-30 16:43:00,81.6,70.4,19.15,ENE,60,3.0,3.0,69,0.00,,SKC,0.00,VWS V14.01,2013-08-30 20:43:00,
2013-08-30 16:48:00,80.7,70.0,19.15,ENE,60,0.0,2.0,70,0.00,,SKC,0.00,VWS V14.01,2013-08-30 20:48:00,
2013-08-30 16:53:00,80.4,70.1,19.15,ENE,60,1.0,1.0,71,0.00,,SKC,0.00,VWS V14.01,2013-08-30 20:53:00,
2013-08-30 16:58:00,80.2,69.9,19.15,ENE,60,0.0,0.0,71,0.00,,SKC,0.00,VWS V14.01,2013-08-30 20:58:00,
2013-08-30 17:03:00,80.1,69.9,19.15,ENE,57,0.0,2.0,71,0.00,,SKC,0.00,VWS V14.01,2013-08-30 21:03:00,
2013-08-30 17:08:00,80.0,69.3,19.15,ENE,57,0.0,2.0,70,0.00,,SKC,0.00,VWS V14.01,2013-08-30 21:08:00,
2013-08-30 17:13:00,79.7,69.5,19.15,ENE,57,0.0,1.0,71,0.00,,SKC,0.00,VWS V14.01,2013-08-30 21:13:00,
2013-08-30 17:18:00,79.7,69.9,19.15,ENE,57,0.0,1.0,72,0.00,,SKC,0.00,VWS V14.01,2013-08-30 21:18:00,
2013-08-30 17:23:00,79.8,70.0,19.15,NE,56,0.0,0.0,72,0.00,,SKC,0.00,VWS V14.01,2013-08-30 21:23:00,
2013-08-30 17:28:00,79.9,70.1,19.15,NE,56,0.0,0.0,72,0.00,,SKC,0.00,VWS V14.01,2013-08-30 21:28:00,
2013-08-30 17:33:00,80.0,69.8,19.15,ENE,57,0.0,0.0,71,0.00,,SKC,0.00,VWS V14.01,2013-08-30 21:33:00,
2013-08-30 17:38:00,80.0,70.2,19.15,ENE,57,0.0,0.0,72,0.00,,SKC,0.00,VWS V14.01,2013-08-30 21:38:00,
2013-08-30 17:43:00,79.8,69.6,19.15,NE,56,0.0,0.0,71,0.00,,SKC,0.00,VWS V14.01,2013-08-30 21:43:00,
2013-08-30 17:48:00,79.7,69.5,19.15,NE,56,0.0,2.0,71,0.00,,SKC,0.00,VWS V14.01,2013-08-30 21:48:00,
2013-08-30 17:53:00,79.8,70.0,19.15,ENE,57,0.0,0.0,72,0.00,,SKC,0.00,VWS V14.01,2013-08-30 21:53:00,
2013-08-30 17:58:00,79.4,69.2,19.15,NE,56,1.0,1.0,71,0.00,,SKC,0.00,VWS V14.01,2013-08-30 21:58:00,
2013-08-30 18:03:00,79.0,69.6,19.15,ENE,57,0.0,0.0,73,0.00,,SKC,0.00,VWS V14.01,2013-08-30 22:03:00,
2013-08-30 18:08:00,78.7,69.3,19.15,NE,56,0.0,1.0,73,0.00,,SKC,0.00,VWS V14.01,2013-08-30 22:08:00,
2013-08-30 18:13:00,78.4,69.4,19.15,ENE,57,0.0,1.0,74,0.00,,SKC,0.00,VWS V14.01,2013-08-30 22:13:00,
2013-08-30 18:18:00,78.3,69.3,19.15,ENE,57,0.0,0.0,74,0.00,,SKC,0.00,VWS V14.01,2013-08-30 22:18:00,
2013-08-30 18:23:00,78.2,69.6,19.15,ENE,57,0.0,0.0,75,0.00,,SKC,0.00,VWS V14.01,2013-08-30 22:23:00,
2013-08-30 18:28:00,78.2,70.0,19.15,ENE,57,0.0,0.0,76,0.00,,SKC,0.00,VWS V14.01,2013-08-30 22:28:00,
2013-08-30 18:33:00,78.1,69.5,25.24,ENE,57,0.0,0.0,75,0.00,,SKC,0.00,VWS V14.01,2013-08-30 22:33:00,
2013-08-30 18:38:00,78.0,69.8,25.24,NE,56,0.0,0.0,76,0.00,,SKC,0.00,VWS V14.01,2013-08-30 22:38:00,
2013-08-30 18:43:00,77.8,69.6,25.24,NE,56,0.0,0.0,76,0.00,,SKC,0.00,VWS V14.01,2013-08-30 22:43:00,
2013-08-30 18:48:00,77.6,69.8,25.24,NE,56,0.0,0.0,77,0.00,,SKC,0.00,VWS V14.01,2013-08-30 22:48:00,
2013-08-30 18:53:00,77.4,70.0,25.24,ENE,57,0.0,0.0,78,0.00,,SKC,0.00,VWS V14.01,2013-08-30 22:53:00,
2013-08-30 18:58:00,77.1,70.1,25.24,ENE,57,0.0,0.0,79,0.00,,SKC,0.00,VWS V14.01,2013-08-30 22:58:00,
2013-08-30 19:03:00,77.1,69.7,25.24,ENE,57,0.0,0.0,78,0.00,,SKC,0.00,VWS V14.01,2013-08-30 23:03:00,
2013-08-30 19:08:00,76.9,69.5,25.24,NE,56,0.0,0.0,78,0.00,,SKC,0.00,VWS V14.01,2013-08-30 23:08:00,
2013-08-30 19:13:00,76.7,69.7,25.24,NE,56,0.0,0.0,79,0.00,,SKC,0.00,VWS V14.01,2013-08-30 23:13:00,
2013-08-30 19:18:00,76.6,70.0,25.24,ENE,57,0.0,0.0,80,0.00,,SKC,0.00,VWS V14.01,2013-08-30 23:18:00,
2013-08-30 19:23:00,76.4,70.1,25.24,ENE,57,0.0,0.0,81,0.00,,SKC,0.00,VWS V14.01,2013-08-30 23:23:00,
2013-08-30 19:28:00,76.2,69.9,25.24,ENE,57,0.0,0.0,81,0.00,,SKC,0.00,VWS V14.01,2013-08-30 23:28:00,
2013-08-30 19:33:00,75.8,69.6,25.24,ENE,57,0.0,0.0,81,0.00,,SKC,0.00,VWS V14.01,2013-08-30 23:33:00,
2013-08-30 19:38:00,75.5,70.0,25.24,ENE,57,0.0,0.0,83,0.00,,SKC,0.00,VWS V14.01,2013-08-30 23:38:00,
2013-08-30 19:43:00,75.2,69.3,25.24,NE,56,2.0,3.0,82,0.00,,SKC,0.00,VWS V14.01,2013-08-30 23:43:00,
2013-08-30 19:48:00,75.1,69.2,25.24,ENE,57,0.0,0.0,82,0.00,,SKC,0.00,VWS V14.01,2013-08-30 23:48:00,
2013-08-30 19:53:00,75.1,69.2,25.24,ENE,57,0.0,0.0,82,0.00,,SKC,0.00,VWS V14.01,2013-08-30 23:53:00,
2013-08-30 19:58:00,75.0,69.1,25.24,ENE,57,1.0,1.0,82,0.00,,SKC,0.00,VWS V14.01,2013-08-30 23:58:00,
2013-08-30 20:03:00,74.9,69.0,25.24,ENE,57,0.0,0.0,82,0.00,,SKC,0.00,VWS V14.01,2013-08-31 00:03:00,
2013-08-30 20:08:00,74.6,69.1,25.24,NE,56,0.0,0.0,83,0.00,,SKC,0.00,VWS V14.01,2013-08-31 00:08:00,
2013-08-30 20:13:00,74.2,68.7,25.24,ENE,57,0.0,0.0,83,0.00,,SKC,0.00,VWS V14.01,2013-08-31 00:13:00,
2013-08-30 20:17:00,73.8,68.7,25.24,ENE,57,0.0,0.0,84,0.00,,SKC,0.00,VWS V14.01,2013-08-31 00:17:00,
2013-08-30 20:22:00,73.4,68.6,25.24,ENE,57,0.0,0.0,85,0.00,,SKC,0.00,VWS V14.01,2013-08-31 00:22:00,
2013-08-30 20:27:00,73.2,68.8,25.24,ENE,57,0.0,0.0,86,0.00,,SKC,0.00,VWS V14.01,2013-08-31 00:27:00,
2013-08-30 20:32:00,73.1,68.7,25.24,ENE,57,0.0,0.0,86,0.00,,SKC,0.00,VWS V14.01,2013-08-31 00:32:00,
2013-08-30 20:37:00,72.9,68.5,25.24,ENE,57,0.0,0.0,86,0.00,,SKC,0.00,VWS V14.01,2013-08-31 00:37:00,
2013-08-30 20:42:00,72.8,68.4,25.24,NE,56,0.0,0.0,86,0.00,,SKC,0.00,VWS V14.01,2013-08-31 00:42:00,
2013-08-30 20:47:00,72.6,68.2,25.24,NE,56,0.0,0.0,86,0.00,,SKC,0.00,VWS V14.01,2013-08-31 00:47:00,
2013-08-30 20:52:00,72.4,68.0,25.24,NE,56,0.0,0.0,86,0.00,,SKC,0.00,VWS V14.01,2013-08-31 00:52:00,
2013-08-30 20:57:00,72.2,67.8,25.24,ENE,57,0.0,0.0,86,0.00,,SKC,0.00,VWS V14.01,2013-08-31 00:57:00,
2013-08-30 21:02:00,72.0,67.6,25.24,ENE,57,0.0,0.0,86,0.00,,SKC,0.00,VWS V14.01,2013-08-31 01:02:00,
2013-08-30 21:07:00,71.8,67.7,25.24,ENE,57,0.0,0.0,87,0.00,,SKC,0.00,VWS V14.01,2013-08-31 01:07:00,
2013-08-30 21:12:00,71.5,67.4,25.24,ENE,57,0.0,0.0,87,0.00,,SKC,0.00,VWS V14.01,2013-08-31 01:12:00,
2013-08-30 21:17:00,71.3,67.6,25.24,ENE,57,0.0,0.0,88,0.00,,SKC,0.00,VWS V14.01,2013-08-31 01:17:00,
2013-08-30 21:22:00,71.1,67.4,25.24,ENE,57,0.0,0.0,88,0.00,,SKC,0.00,VWS V14.01,2013-08-31 01:22:00,
2013-08-30 21:27:00,71.0,67.6,25.24,ENE,57,0.0,0.0,89,0.00,,SKC,0.00,VWS V14.01,2013-08-31 01:27:00,
2013-08-30 21:32:00,70.9,67.5,25.24,NE,56,0.0,0.0,89,0.00,,SKC,0.00,VWS V14.01,2013-08-31 01:32:00,
2013-08-30 21:37:00,70.8,67.4,25.24,NE,56,0.0,0.0,89,0.00,,SKC,0.00,VWS V14.01,2013-08-31 01:37:00,
2013-08-30 21:42:00,70.7,67.3,25.24,NE,56,0.0,0.0,89,0.00,,SKC,0.00,VWS V14.01,2013-08-31 01:42:00,
2013-08-30 21:47:00,70.7,67.6,25.24,ENE,57,0.0,0.0,90,0.00,,SKC,0.00,VWS V14.01,2013-08-31 01:47:00,
2013-08-30 21:52:00,70.7,67.6,25.24,NE,56,0.0,0.0,90,0.00,,SKC,0.00,VWS V14.01,2013-08-31 01:52:00,
2013-08-30 21:57:00,70.6,67.5,25.24,NE,56,1.0,1.0,90,0.00,,SKC,0.00,VWS V14.01,2013-08-31 01:57:00,
2013-08-30 22:02:00,70.5,67.4,25.24,ENE,57,0.0,0.0,90,0.00,,SKC,0.00,VWS V14.01,2013-08-31 02:02:00,
2013-08-30 22:07:00,70.4,67.3,25.24,ENE,57,0.0,1.0,90,0.00,,SKC,0.00,VWS V14.01,2013-08-31 02:07:00,
2013-08-30 22:12:00,70.4,67.0,25.24,ENE,57,0.0,0.0,89,0.00,,SKC,0.00,VWS V14.01,2013-08-31 02:12:00,
2013-08-30 22:17:00,70.4,67.0,25.24,NE,56,0.0,0.0,89,0.00,,SKC,0.00,VWS V14.01,2013-08-31 02:17:00,
2013-08-30 22:22:00,70.3,66.9,25.24,ENE,57,0.0,0.0,89,0.00,,SKC,0.00,VWS V14.01,2013-08-31 02:22:00,
2013-08-30 22:27:00,70.3,66.6,25.24,ENE,57,0.0,1.0,88,0.00,,SKC,0.00,VWS V14.01,2013-08-31 02:27:00,
2013-08-30 22:32:00,70.2,66.5,25.24,ENE,57,0.0,0.0,88,0.00,,SKC,0.00,VWS V14.01,2013-08-31 02:32:00,
2013-08-30 22:37:00,70.0,66.3,25.24,ENE,57,0.0,0.0,88,0.00,,SKC,0.00,VWS V14.01,2013-08-31 02:37:00,
2013-08-30 22:42:00,69.9,66.2,25.24,ENE,57,0.0,0.0,88,0.00,,SKC,0.00,VWS V14.01,2013-08-31 02:42:00,
2013-08-30 22:47:00,69.7,66.0,25.24,NE,56,0.0,2.0,88,0.00,,SKC,0.00,VWS V14.01,2013-08-31 02:47:00,
2013-08-30 22:52:00,69.5,65.8,25.24,NE,56,0.0,0.0,88,0.00,,SKC,0.00,VWS V14.01,2013-08-31 02:52:00,
2013-08-30 22:57:00,69.3,65.9,25.24,ENE,57,0.0,0.0,89,0.00,,SKC,0.00,VWS V14.01,2013-08-31 02:57:00,
2013-08-30 23:02:00,69.0,65.6,25.24,ENE,57,0.0,0.0,89,0.00,,SKC,0.00,VWS V14.01,2013-08-31 03:02:00,
2013-08-30 23:07:00,68.8,65.4,25.24,NE,56,0.0,0.0,89,0.00,,SKC,0.00,VWS V14.01,2013-08-31 03:07:00,
2013-08-30 23:12:00,68.6,65.2,25.24,ENE,57,0.0,0.0,89,0.00,,SKC,0.00,VWS V14.01,2013-08-31 03:12:00,
2013-08-30 23:17:00,68.4,65.4,25.24,NE,56,0.0,0.0,90,0.00,,SKC,0.00,VWS V14.01,2013-08-31 03:17:00,
2013-08-30 23:22:00,68.3,65.3,25.24,ENE,57,0.0,0.0,90,0.00,,SKC,0.00,VWS V14.01,2013-08-31 03:22:00,
2013-08-30 23:27:00,68.2,65.2,25.24,ENE,57,0.0,1.0,90,0.00,,SKC,0.00,VWS V14.01,2013-08-31 03:27:00,
2013-08-30 23:32:00,68.2,64.8,25.24,ENE,57,2.0,3.0,89,0.00,,SKC,0.00,VWS V14.01,2013-08-31 03:32:00,
2013-08-30 23:37:00,68.2,64.8,25.24,NE,56,0.0,0.0,89,0.00,,SKC,0.00,VWS V14.01,2013-08-31 03:37:00,
2013-08-30 23:42:00,68.1,64.7,25.24,NE,56,0.0,0.0,89,0.00,,SKC,0.00,VWS V14.01,2013-08-31 03:42:00,
2013-08-30 23:47:00,67.9,64.5,25.24,ENE,57,0.0,0.0,89,0.00,,SKC,0.00,VWS V14.01,2013-08-31 03:47:00,
2013-08-30 23:52:00,67.8,64.4,25.24,NE,56,0.0,0.0,89,0.00,,SKC,0.00,VWS V14.01,2013-08-31 03:52:00,
2013-08-30 23:57:00,67.6,64.6,25.24,ENE,57,0.0,0.0,90,0.00,,SKC,0.00,VWS V14.01,2013-08-31 03:57:00,